aviador You're here:

KMQJ Decoded Metar

in
Report Time2018-05-23 18:37:00
UTC Time2018-05-23 18:41:16
Flight Rules vfr VFR
Wind360° at 10 kt
W.Decomp.*RWY 34: 9.4 kt HW 3.4 kt RCW
RWY 07: 3.4 kt HW 9.4 kt LCW
Visibility9999 m
Phenomena:N/A
Clouds:N/A
Expected CloudBase > 4,000 ft AGL from Temp-Dew spread
CeilingNone
Temp26°C
Dew Point16°C (54% RH)
AAT24.4°C
QNH1022 hPa
Raw Report
KMQJ 231837Z AUTO 36010KT 10SM CLR 26/16 A3017 RMK AO1=

Extra information for KMQJ:More info

Social comments